createdAt,value
2023-01-31T00:01:48.106Z,2.35
2023-01-31T00:04:14.886Z,2.40
2023-01-31T00:06:45.191Z,2.83
2023-01-31T00:09:13.054Z,2.58
2023-01-31T00:11:40.369Z,2.15
2023-01-31T00:14:08.866Z,2.67
2023-01-31T00:16:36.218Z,2.25
2023-01-31T00:19:04.318Z,3.40
2023-01-31T00:21:31.834Z,2.53
2023-01-31T00:24:00.160Z,2.90
2023-01-31T00:26:31.132Z,2.22
2023-01-31T00:29:00.933Z,2.38
2023-01-31T00:31:30.168Z,2.38
2023-01-31T00:33:57.703Z,2.53
2023-01-31T00:36:28.527Z,1.95
2023-01-31T00:38:58.164Z,2.17
2023-01-31T00:41:26.911Z,2.67
2023-01-31T00:43:53.872Z,2.42
2023-01-31T00:46:22.319Z,2.50
2023-01-31T00:48:50.041Z,2.90
2023-01-31T00:51:17.100Z,2.90
2023-01-31T00:53:43.884Z,3.20
2023-01-31T00:56:19.004Z,2.78
2023-01-31T00:58:46.204Z,2.60
2023-01-31T01:01:18.724Z,1.83
2023-01-31T01:03:46.623Z,3.30
2023-01-31T01:06:14.440Z,2.28
2023-01-31T01:08:43.426Z,2.20
2023-01-31T01:11:20.371Z,2.75
2023-01-31T01:13:47.890Z,2.45
2023-01-31T01:16:25.420Z,2.25
2023-01-31T01:18:54.996Z,2.58
2023-01-31T01:21:25.297Z,2.25
2023-01-31T01:23:52.756Z,3.10
2023-01-31T01:26:27.069Z,2.10
2023-01-31T01:28:56.236Z,1.92
2023-01-31T01:31:30.578Z,2.05
2023-01-31T01:34:16.947Z,3.17
2023-01-31T01:36:46.883Z,2.15
2023-01-31T01:39:14.772Z,1.90
2023-01-31T01:41:41.957Z,1.80
2023-01-31T01:44:43.432Z,1.88
2023-01-31T01:47:40.649Z,2.00
2023-01-31T01:50:30.351Z,1.42
2023-01-31T01:53:06.092Z,0.98
2023-01-31T01:55:44.199Z,1.42
2023-01-31T01:58:27.737Z,1.17
2023-01-31T02:01:00.531Z,1.88
2023-01-31T02:06:05.034Z,2.63
2023-01-31T02:08:36.095Z,1.55
2023-01-31T02:11:07.555Z,3.05
2023-01-31T02:13:34.961Z,2.05
2023-01-31T02:16:01.699Z,1.50
2023-01-31T02:18:29.322Z,2.35
2023-01-31T02:21:23.055Z,2.15
2023-01-31T02:24:34.167Z,1.80
2023-01-31T02:27:17.974Z,1.98
2023-01-31T02:30:54.702Z,2.83
2023-01-31T02:33:31.243Z,1.85
2023-01-31T02:37:01.064Z,2.70
2023-01-31T02:40:02.377Z,1.92
2023-01-31T02:42:46.011Z,1.80
2023-01-31T02:45:38.107Z,1.75
2023-01-31T02:48:34.628Z,1.52
2023-01-31T02:51:20.839Z,1.42
2023-01-31T02:53:55.697Z,2.42
2023-01-31T02:56:29.266Z,1.52
2023-01-31T02:59:22.088Z,1.25
2023-01-31T03:01:57.459Z,1.48
2023-01-31T03:04:24.205Z,1.83
2023-01-31T03:07:02.341Z,2.22
2023-01-31T03:09:40.071Z,1.73
2023-01-31T03:12:51.927Z,1.55
2023-01-31T03:15:56.164Z,2.47
2023-01-31T03:19:02.499Z,1.33
2023-01-31T03:21:42.308Z,1.23
2023-01-31T03:24:09.676Z,2.00
2023-01-31T03:26:36.913Z,1.40
2023-01-31T03:29:06.395Z,1.83
2023-01-31T03:31:39.331Z,3.10
2023-01-31T03:34:11.576Z,1.88
2023-01-31T03:37:08.827Z,1.95
2023-01-31T03:40:06.173Z,1.50
2023-01-31T03:42:50.695Z,2.28
2023-01-31T03:45:27.208Z,3.40
2023-01-31T03:47:55.351Z,1.88
2023-01-31T03:50:31.376Z,2.78
2023-01-31T03:53:38.423Z,2.15
2023-01-31T03:56:10.717Z,1.42
2023-01-31T03:58:50.910Z,1.58
2023-01-31T04:01:20.665Z,1.85
2023-01-31T04:03:59.010Z,1.27
2023-01-31T04:06:27.373Z,2.13
2023-01-31T04:08:54.783Z,2.00
2023-01-31T04:11:25.808Z,2.42
2023-01-31T04:13:52.791Z,2.75
2023-01-31T04:16:20.017Z,2.20
2023-01-31T04:18:46.779Z,2.70
2023-01-31T04:21:15.495Z,3.70
2023-01-31T04:23:42.358Z,2.80
2023-01-31T04:26:09.116Z,2.80
2023-01-31T04:28:35.855Z,1.73
2023-01-31T04:31:02.636Z,2.42
2023-01-31T04:33:29.439Z,2.05
2023-01-31T04:35:56.318Z,1.75
2023-01-31T04:38:23.157Z,2.00
2023-01-31T04:40:49.881Z,2.60
2023-01-31T04:43:17.172Z,1.80
2023-01-31T04:45:43.925Z,3.13
2023-01-31T04:48:10.687Z,1.92
2023-01-31T04:50:37.462Z,2.17
2023-01-31T04:53:04.958Z,2.10
2023-01-31T04:55:31.885Z,2.10
2023-01-31T04:57:58.647Z,2.15
2023-01-31T05:00:25.552Z,1.48
2023-01-31T05:02:53.280Z,2.67
2023-01-31T05:05:21.495Z,2.25
2023-01-31T05:07:48.502Z,2.80
2023-01-31T05:10:16.127Z,1.70
2023-01-31T05:12:42.870Z,4.05
2023-01-31T05:15:11.846Z,4.20
2023-01-31T05:17:38.974Z,2.67
2023-01-31T05:20:06.792Z,2.63
2023-01-31T05:22:34.053Z,2.83
2023-01-31T05:25:00.799Z,2.47
2023-01-31T05:27:27.734Z,1.92
2023-01-31T05:29:55.174Z,2.03
2023-01-31T05:32:22.063Z,2.55
2023-01-31T05:34:48.840Z,1.63
2023-01-31T05:37:15.610Z,2.00
2023-01-31T05:39:42.406Z,2.83
2023-01-31T05:42:09.169Z,4.63
2023-01-31T05:44:35.904Z,3.85
2023-01-31T05:47:02.684Z,2.40
2023-01-31T05:49:33.627Z,2.15
2023-01-31T05:52:01.265Z,1.63
2023-01-31T05:54:28.350Z,2.85
2023-01-31T05:56:55.179Z,2.90
2023-01-31T05:59:21.987Z,3.55
2023-01-31T06:01:48.813Z,2.75
2023-01-31T06:04:15.768Z,3.00
2023-01-31T06:06:42.820Z,2.08
2023-01-31T06:09:09.716Z,1.75
2023-01-31T06:11:36.520Z,2.00
2023-01-31T06:14:03.395Z,2.35
2023-01-31T06:16:30.745Z,1.65
2023-01-31T06:18:57.959Z,2.45
2023-01-31T06:21:24.786Z,3.03
2023-01-31T06:23:51.617Z,2.42
2023-01-31T06:26:18.425Z,2.45
2023-01-31T06:28:46.295Z,3.47
2023-01-31T06:31:13.797Z,3.60
2023-01-31T06:33:47.775Z,2.88
2023-01-31T06:36:18.997Z,3.05
2023-01-31T06:38:50.985Z,2.92
2023-01-31T06:41:21.382Z,3.63
2023-01-31T06:43:48.513Z,3.42
2023-01-31T06:46:15.378Z,3.60
2023-01-31T06:48:42.223Z,4.10
2023-01-31T06:51:08.973Z,4.32
2023-01-31T06:53:36.071Z,4.25
2023-01-31T06:56:02.847Z,3.00
2023-01-31T06:58:29.621Z,3.83
2023-01-31T07:00:56.844Z,3.83
2023-01-31T07:03:23.700Z,4.45
2023-01-31T07:05:50.470Z,3.50
2023-01-31T07:08:17.265Z,2.88
2023-01-31T07:10:44.143Z,3.05
2023-01-31T07:13:10.910Z,3.88
2023-01-31T07:15:37.727Z,2.72
2023-01-31T07:18:04.843Z,3.88
2023-01-31T07:20:32.249Z,4.07
2023-01-31T07:22:59.542Z,3.65
2023-01-31T07:25:27.543Z,4.07
2023-01-31T07:27:54.396Z,4.07
2023-01-31T07:30:22.506Z,4.53
2023-01-31T07:32:49.273Z,3.22
2023-01-31T07:35:16.095Z,3.28
2023-01-31T07:37:43.668Z,3.40
2023-01-31T07:40:15.706Z,3.75
2023-01-31T07:42:42.793Z,4.07
2023-01-31T07:45:23.018Z,3.80
2023-01-31T07:47:50.536Z,5.25
2023-01-31T07:50:17.904Z,4.18
2023-01-31T07:52:44.799Z,3.85
2023-01-31T07:55:11.585Z,5.10
2023-01-31T07:57:38.341Z,4.15
2023-01-31T08:00:25.874Z,6.32
2023-01-31T08:03:11.289Z,4.00
2023-01-31T08:05:38.052Z,4.45
2023-01-31T08:08:10.789Z,4.60
2023-01-31T08:13:06.422Z,2.95
2023-01-31T08:15:34.331Z,4.00
2023-01-31T08:18:02.074Z,7.30
2023-01-31T08:20:30.631Z,4.55
2023-01-31T08:23:00.537Z,8.60
2023-01-31T08:25:31.929Z,10.88
2023-01-31T08:28:00.410Z,7.88
2023-01-31T08:30:28.631Z,9.07
2023-01-31T08:32:56.403Z,4.43
2023-01-31T08:35:23.275Z,6.93
2023-01-31T08:37:50.026Z,7.50
2023-01-31T08:40:17.236Z,5.97
2023-01-31T08:42:44.053Z,6.35
2023-01-31T08:45:11.084Z,5.55
2023-01-31T08:47:38.947Z,9.38
2023-01-31T08:50:15.817Z,6.47
2023-01-31T08:52:54.230Z,8.23
2023-01-31T08:55:22.489Z,11.77
2023-01-31T08:57:59.305Z,9.85
2023-01-31T09:00:27.915Z,5.78
2023-01-31T09:02:59.117Z,4.28
2023-01-31T09:05:28.953Z,6.88
2023-01-31T09:07:55.891Z,5.63
2023-01-31T09:10:23.302Z,5.47
2023-01-31T09:12:50.185Z,6.25
2023-01-31T09:15:17.767Z,6.72
2023-01-31T09:17:44.681Z,5.38
2023-01-31T09:20:11.920Z,4.53
2023-01-31T09:22:38.717Z,5.55
2023-01-31T09:25:06.275Z,3.42
2023-01-31T09:27:33.324Z,3.35
2023-01-31T09:30:00.258Z,2.55
2023-01-31T09:32:27.285Z,2.88
2023-01-31T09:34:54.013Z,3.25
2023-01-31T09:37:20.737Z,4.57
2023-01-31T09:39:47.565Z,3.55
2023-01-31T09:42:32.105Z,3.42
2023-01-31T09:45:15.519Z,3.42
2023-01-31T09:47:49.694Z,4.70
2023-01-31T09:50:26.316Z,2.67
2023-01-31T09:52:53.895Z,3.45
2023-01-31T09:55:32.234Z,2.92
2023-01-31T09:58:32.101Z,3.40
2023-01-31T10:01:30.668Z,3.92
2023-01-31T10:04:02.670Z,3.83
2023-01-31T10:06:57.206Z,4.23
2023-01-31T10:09:36.039Z,3.72
2023-01-31T10:12:22.895Z,2.47
2023-01-31T10:15:01.625Z,2.72
2023-01-31T10:17:33.483Z,2.92
2023-01-31T10:20:06.096Z,2.70
2023-01-31T10:22:42.288Z,2.40
2023-01-31T10:25:40.738Z,3.30
2023-01-31T10:28:17.009Z,2.80
2023-01-31T10:30:55.815Z,3.95
2023-01-31T10:34:07.044Z,4.93
2023-01-31T10:36:40.884Z,4.53
2023-01-31T10:39:21.423Z,5.28
2023-01-31T10:42:06.957Z,4.25
2023-01-31T10:44:58.605Z,4.15
2023-01-31T10:47:41.882Z,4.78
2023-01-31T10:50:57.374Z,5.20
2023-01-31T10:54:05.460Z,4.47
2023-01-31T10:56:38.949Z,4.32
2023-01-31T10:59:25.313Z,4.72
2023-01-31T11:01:52.590Z,4.57
2023-01-31T11:04:30.824Z,3.88
2023-01-31T11:07:01.582Z,3.80
2023-01-31T11:09:34.840Z,3.03
2023-01-31T11:12:05.844Z,4.05
2023-01-31T11:14:33.213Z,3.95
2023-01-31T11:17:24.151Z,3.60
2023-01-31T11:19:56.283Z,3.42
2023-01-31T11:22:33.475Z,4.38
2023-01-31T11:25:04.383Z,3.70
2023-01-31T11:27:40.541Z,4.18
2023-01-31T11:30:22.278Z,3.22
2023-01-31T11:32:50.156Z,3.38
2023-01-31T11:35:16.800Z,4.07
2023-01-31T11:38:03.113Z,3.55
2023-01-31T11:40:37.249Z,3.65
2023-01-31T11:43:10.613Z,4.07
2023-01-31T11:45:46.474Z,3.70
2023-01-31T11:48:17.529Z,3.38
2023-01-31T11:50:56.388Z,3.25
2023-01-31T11:53:33.757Z,3.47
2023-01-31T11:56:14.239Z,3.08
2023-01-31T11:58:43.231Z,3.45
2023-01-31T12:01:17.709Z,2.85
2023-01-31T12:04:01.907Z,3.45
2023-01-31T12:06:34.747Z,3.85
2023-01-31T12:09:24.395Z,2.72
2023-01-31T12:12:08.047Z,2.28
2023-01-31T12:14:41.303Z,2.90
2023-01-31T12:17:15.206Z,2.28
2023-01-31T12:20:26.528Z,2.83
2023-01-31T12:23:03.339Z,1.70
2023-01-31T12:25:55.811Z,1.80
2023-01-31T12:29:04.571Z,1.80
2023-01-31T12:32:13.192Z,1.33
2023-01-31T12:35:00.142Z,2.50
2023-01-31T12:37:58.772Z,1.77
2023-01-31T12:40:52.528Z,2.20
2023-01-31T12:43:42.012Z,1.85
2023-01-31T12:46:20.289Z,1.52
2023-01-31T12:49:23.622Z,1.02
2023-01-31T12:52:19.889Z,1.63
2023-01-31T12:55:33.571Z,1.67
2023-01-31T12:58:28.364Z,1.50
2023-01-31T13:01:17.214Z,2.15
2023-01-31T13:04:05.893Z,1.00
2023-01-31T13:06:39.322Z,1.40
2023-01-31T13:09:24.479Z,1.88
2023-01-31T13:12:03.780Z,1.23
2023-01-31T13:14:41.878Z,1.70
2023-01-31T13:17:13.900Z,1.40
2023-01-31T13:19:54.060Z,1.70
2023-01-31T13:22:30.571Z,1.40
2023-01-31T13:25:24.053Z,2.35
2023-01-31T13:28:01.396Z,2.08
2023-01-31T13:30:40.917Z,1.33
2023-01-31T13:33:24.698Z,1.38
2023-01-31T13:36:23.039Z,2.30
2023-01-31T13:38:50.139Z,3.30
2023-01-31T13:41:32.365Z,1.20
2023-01-31T13:44:01.190Z,0.98
2023-01-31T13:46:42.480Z,1.88
2023-01-31T13:49:35.344Z,1.73
2023-01-31T13:52:15.287Z,2.05
2023-01-31T13:54:53.371Z,1.83
2023-01-31T13:57:34.599Z,1.75
2023-01-31T14:00:27.153Z,1.60
2023-01-31T14:03:07.851Z,1.00
2023-01-31T14:05:56.917Z,1.55
2023-01-31T14:08:32.568Z,1.17
2023-01-31T14:11:14.312Z,1.50
2023-01-31T14:13:50.179Z,1.77
2023-01-31T14:16:42.404Z,4.05
2023-01-31T14:19:23.996Z,1.33
2023-01-31T14:22:12.452Z,2.90
2023-01-31T14:24:53.381Z,1.80
2023-01-31T14:27:40.100Z,2.70
2023-01-31T14:30:07.094Z,3.72
2023-01-31T14:33:13.293Z,1.50
2023-01-31T14:35:57.763Z,1.75
2023-01-31T14:39:02.730Z,2.17
2023-01-31T14:41:57.226Z,2.47
2023-01-31T14:44:45.640Z,1.27
2023-01-31T14:47:39.875Z,1.65
2023-01-31T14:50:42.957Z,1.42
2023-01-31T14:53:39.018Z,1.10
2023-01-31T14:56:51.664Z,1.83
2023-01-31T14:59:35.577Z,1.30
2023-01-31T15:02:43.345Z,1.50
2023-01-31T15:05:17.800Z,1.30
2023-01-31T15:08:11.824Z,1.27
2023-01-31T15:11:03.237Z,1.75
2023-01-31T15:13:54.220Z,1.35
2023-01-31T15:16:32.111Z,1.77
2023-01-31T15:19:13.191Z,1.90
2023-01-31T15:21:53.277Z,1.70
2023-01-31T15:24:47.543Z,2.17
2023-01-31T15:27:20.354Z,2.50
2023-01-31T15:29:59.065Z,3.30
2023-01-31T15:32:42.293Z,3.80
2023-01-31T15:35:27.177Z,2.83
2023-01-31T15:38:18.241Z,3.40
2023-01-31T15:40:45.018Z,3.95
2023-01-31T15:43:25.229Z,2.45
2023-01-31T15:45:52.706Z,3.28
2023-01-31T15:48:22.190Z,4.35
2023-01-31T15:50:56.663Z,2.65
2023-01-31T15:53:31.425Z,4.60
2023-01-31T15:56:02.838Z,5.18
2023-01-31T15:58:31.225Z,6.63
2023-01-31T16:01:00.560Z,6.22
2023-01-31T16:03:35.783Z,5.82
2023-01-31T16:06:03.851Z,6.00
2023-01-31T16:08:37.006Z,3.22
2023-01-31T16:11:09.859Z,3.65
2023-01-31T16:16:10.687Z,2.97
2023-01-31T16:18:38.555Z,2.28
2023-01-31T16:21:31.541Z,2.17
2023-01-31T16:24:19.128Z,3.20
2023-01-31T16:27:14.857Z,5.10
2023-01-31T16:29:46.839Z,4.40
2023-01-31T16:32:25.254Z,2.97
2023-01-31T16:35:08.219Z,10.43
2023-01-31T16:37:43.707Z,6.55
2023-01-31T16:40:23.418Z,2.88
2023-01-31T16:42:50.233Z,1.77
2023-01-31T16:45:28.374Z,2.58
2023-01-31T16:47:56.558Z,1.75
2023-01-31T16:50:42.397Z,2.15
2023-01-31T16:53:27.012Z,2.97
2023-01-31T16:56:15.649Z,3.20
2023-01-31T16:59:02.832Z,2.72
2023-01-31T17:01:32.924Z,2.35
2023-01-31T17:04:18.716Z,2.47
2023-01-31T17:07:02.718Z,1.50
2023-01-31T17:09:29.578Z,1.55
2023-01-31T17:11:56.950Z,2.50
2023-01-31T17:14:24.439Z,2.08
2023-01-31T17:16:54.415Z,2.20
2023-01-31T17:19:21.214Z,1.80
2023-01-31T17:21:50.206Z,2.70
2023-01-31T17:24:22.652Z,4.32
2023-01-31T17:26:50.178Z,3.20
2023-01-31T17:29:18.241Z,4.82
2023-01-31T17:31:45.047Z,7.40
2023-01-31T17:34:14.396Z,7.25
2023-01-31T17:36:42.267Z,13.85
2023-01-31T17:39:09.398Z,12.27
2023-01-31T17:41:37.620Z,15.43
2023-01-31T17:44:06.648Z,16.50
2023-01-31T17:46:33.875Z,9.73
2023-01-31T17:49:00.640Z,9.82
2023-01-31T17:51:27.437Z,5.35
2023-01-31T17:53:54.231Z,5.05
2023-01-31T17:56:21.317Z,4.05
2023-01-31T17:58:49.436Z,4.22
2023-01-31T18:01:16.514Z,3.63
2023-01-31T18:03:43.601Z,2.92
2023-01-31T18:06:10.834Z,3.15
2023-01-31T18:08:37.940Z,4.18
2023-01-31T18:11:09.983Z,1.80
2023-01-31T18:13:38.153Z,4.00
2023-01-31T18:16:12.343Z,3.63
2023-01-31T18:18:43.955Z,2.78
2023-01-31T18:21:15.902Z,2.75
2023-01-31T18:23:43.102Z,2.23
2023-01-31T18:26:11.307Z,2.53
2023-01-31T18:28:38.099Z,2.25
2023-01-31T18:31:10.551Z,1.85
2023-01-31T18:33:38.048Z,2.88
2023-01-31T18:36:06.106Z,2.22
2023-01-31T18:38:33.097Z,2.58
2023-01-31T18:41:02.617Z,3.70
2023-01-31T18:43:30.177Z,3.30
2023-01-31T18:45:56.923Z,2.90
2023-01-31T18:48:24.015Z,3.42
2023-01-31T18:50:50.744Z,1.73
2023-01-31T18:53:17.528Z,2.35
2023-01-31T18:55:44.254Z,2.75
2023-01-31T18:58:10.979Z,2.67
2023-01-31T19:00:37.772Z,2.13
2023-01-31T19:03:04.582Z,3.08
2023-01-31T19:05:31.328Z,3.13
2023-01-31T19:07:58.049Z,3.33
2023-01-31T19:10:24.784Z,4.15
2023-01-31T19:12:51.692Z,5.95
2023-01-31T19:15:18.590Z,4.03
2023-01-31T19:17:45.435Z,3.40
2023-01-31T19:20:12.756Z,2.58
2023-01-31T19:22:39.522Z,3.20
2023-01-31T19:25:09.204Z,3.33
2023-01-31T19:27:35.935Z,3.67
2023-01-31T19:30:02.917Z,3.88
2023-01-31T19:32:31.112Z,4.07
2023-01-31T19:34:57.895Z,2.45
2023-01-31T19:37:24.632Z,2.38
2023-01-31T19:39:51.384Z,3.13
2023-01-31T19:42:18.157Z,3.72
2023-01-31T19:44:44.947Z,2.67
2023-01-31T19:47:11.735Z,3.25
2023-01-31T19:49:38.516Z,2.75
2023-01-31T19:52:05.396Z,2.80
2023-01-31T19:54:32.141Z,2.83
2023-01-31T19:56:58.889Z,3.05
2023-01-31T19:59:25.641Z,1.95
2023-01-31T20:01:52.420Z,2.15
2023-01-31T20:04:19.233Z,3.85
2023-01-31T20:06:46.180Z,3.30
2023-01-31T20:09:20.284Z,4.13
2023-01-31T20:11:47.251Z,3.20
2023-01-31T20:14:13.992Z,4.63
2023-01-31T20:16:40.842Z,3.28
2023-01-31T20:19:07.780Z,2.70
2023-01-31T20:21:34.715Z,3.78
2023-01-31T20:24:01.642Z,5.38
2023-01-31T20:26:29.855Z,4.72
2023-01-31T20:28:57.045Z,3.05
2023-01-31T20:31:24.150Z,3.72
2023-01-31T20:33:52.455Z,2.78
2023-01-31T20:36:19.237Z,3.05
2023-01-31T20:38:46.027Z,2.67
2023-01-31T20:41:15.094Z,2.75
2023-01-31T20:43:42.674Z,2.10
2023-01-31T20:46:12.792Z,3.38
2023-01-31T20:48:41.014Z,2.78
2023-01-31T20:51:08.625Z,3.33
2023-01-31T20:53:35.923Z,3.60
2023-01-31T20:56:09.608Z,5.32
2023-01-31T20:58:39.431Z,9.10
2023-01-31T21:01:07.808Z,5.60
2023-01-31T21:03:36.010Z,2.15
2023-01-31T21:06:04.338Z,5.63
2023-01-31T21:08:35.748Z,4.90
2023-01-31T21:11:08.065Z,4.97
2023-01-31T21:13:36.116Z,3.65
2023-01-31T21:16:06.697Z,2.25
2023-01-31T21:18:38.081Z,2.55
2023-01-31T21:21:09.955Z,3.33
2023-01-31T21:23:39.093Z,2.75
2023-01-31T21:26:09.911Z,2.95
2023-01-31T21:28:37.675Z,3.92
2023-01-31T21:31:08.786Z,3.42
2023-01-31T21:33:36.392Z,3.05
2023-01-31T21:36:11.434Z,3.03
2023-01-31T21:38:39.841Z,2.95
2023-01-31T21:41:25.376Z,2.33
2023-01-31T21:43:52.257Z,2.35
2023-01-31T21:46:19.423Z,2.78
2023-01-31T21:48:46.353Z,3.28
2023-01-31T21:51:15.974Z,2.40
2023-01-31T21:53:43.485Z,2.60
2023-01-31T21:56:19.669Z,2.30
2023-01-31T21:58:46.921Z,2.35
2023-01-31T22:01:20.614Z,2.30
2023-01-31T22:03:50.608Z,2.50
2023-01-31T22:06:21.087Z,2.58
2023-01-31T22:08:53.156Z,2.60
2023-01-31T22:11:20.573Z,1.60
2023-01-31T22:13:51.637Z,1.90
2023-01-31T22:16:21.807Z,2.13
2023-01-31T22:18:49.427Z,1.83
2023-01-31T22:21:36.947Z,2.13
2023-01-31T22:24:07.284Z,1.75
2023-01-31T22:26:44.909Z,1.98
2023-01-31T22:29:15.674Z,1.90
2023-01-31T22:31:43.951Z,2.08
2023-01-31T22:34:15.093Z,1.73
2023-01-31T22:36:41.898Z,2.58
2023-01-31T22:39:11.923Z,2.25
2023-01-31T22:41:38.677Z,2.60
2023-01-31T22:44:05.543Z,2.40
2023-01-31T22:46:32.423Z,1.77
2023-01-31T22:48:59.378Z,2.10
2023-01-31T22:51:28.399Z,1.83
2023-01-31T22:53:57.635Z,2.78
2023-01-31T22:56:30.647Z,2.63
2023-01-31T22:59:00.266Z,2.22
2023-01-31T23:01:32.095Z,1.98
2023-01-31T23:04:02.564Z,2.40
2023-01-31T23:06:29.655Z,2.05
2023-01-31T23:08:57.538Z,2.10
2023-01-31T23:11:24.767Z,2.58
2023-01-31T23:13:51.836Z,2.30
2023-01-31T23:16:43.963Z,2.50
2023-01-31T23:19:11.674Z,2.05
2023-01-31T23:21:42.985Z,1.50
2023-01-31T23:24:11.540Z,2.25
2023-01-31T23:26:38.747Z,1.55
2023-01-31T23:29:05.557Z,2.20
2023-01-31T23:31:32.648Z,2.13
2023-01-31T23:34:00.768Z,1.95
2023-01-31T23:36:28.351Z,1.90
2023-01-31T23:38:55.270Z,2.22
2023-01-31T23:41:22.045Z,2.05
2023-01-31T23:43:48.758Z,2.35
2023-01-31T23:46:15.573Z,2.03
2023-01-31T23:48:43.432Z,1.80
2023-01-31T23:51:10.281Z,2.13
2023-01-31T23:53:37.037Z,1.70
2023-01-31T23:56:04.183Z,1.65
2023-01-31T23:58:30.973Z,1.70
